Terminal Aerodrome Forecast
Issued by NWS

Home | Current Version | Previous Version | Text Only | Print | Product List | Glossary Off
Versions: 1 2 3 4 5 6 7 8 9 10 11 12 13 14 15 16 17 18 19

000
FTUS43 KMPX 292300
TAFRWF
TAF
KRWF 292327Z 3000/3024 27003KT 6SM BR VCSH FEW006 SCT015 OVC035
      TEMPO 3000/3002 4SM -RA BR
     FM300800 31005KT 1SM BR OVC003
     FM301500 32005KT 6SM BR BKN010
     FM301700 32004KT P6SM BKN020
     FM302100 VRB03KT P6SM SCT020=

USA.gov is the U.S. government's official web portal to all federal, state and local government web resources and services.